Time;durP1;ratioP1;P1;durP2;ratioP2;P2;SDS_P1;SDS_P2;PMS_P1;PMS_P2;Temp;Humidity;BMP_temperature;BMP_pressure;BME280_temperature;BME280_humidity;BME280_pressure;Samples;Min_cycle;Max_cycle;Signal;HPM_P1;HPM_P2
2023/02/05 00:01:55;;;;;;;19.70;10.23;;;;;;;8.57;59.42;99598.34;5026229;28;20033;-64
2023/02/05 00:04:20;;;;;;;20.33;10.93;;;;;;;8.87;59.18;99641.19;5023284;28;20095;-63
2023/02/05 00:06:45;;;;;;;23.95;11.38;;;;;;;8.88;59.33;99637.69;4993427;28;20029;-64
2023/02/05 00:09:11;;;;;;;18.17;9.52;;;;;;;8.85;59.26;99639.56;5024705;28;20033;-64
2023/02/05 00:11:36;;;;;;;19.10;10.00;;;;;;;8.77;59.44;99646.22;5039266;28;20025;-63
2023/02/05 00:14:02;;;;;;;20.90;10.70;;;;;;;8.77;59.43;99661.78;5020634;28;20706;-64
2023/02/05 00:16:28;;;;;;;18.85;9.88;;;;;;;8.74;59.23;99662.78;5013131;28;20061;-65
2023/02/05 00:18:53;;;;;;;21.42;10.18;;;;;;;8.78;59.33;99666.00;5044671;28;20038;-65
2023/02/05 00:21:20;;;;;;;17.20;8.75;;;;;;;8.75;58.50;99667.06;5010285;28;20033;-65
2023/02/05 00:23:46;;;;;;;20.52;10.32;;;;;;;8.65;58.59;99681.59;5017798;28;20029;-67
2023/02/05 00:26:13;;;;;;;21.70;11.57;;;;;;;8.62;58.85;99677.47;5022249;28;20029;-65
2023/02/05 00:28:39;;;;;;;17.33;10.30;;;;;;;8.40;58.92;99648.75;5020386;28;20473;-64
2023/02/05 00:31:10;;;;;;;18.30;9.32;;;;;;;8.66;58.37;99698.81;5024159;28;20540;-64
2023/02/05 00:33:35;;;;;;;16.27;8.48;;;;;;;8.68;58.82;99698.72;4998989;28;20087;-64
2023/02/05 00:36:01;;;;;;;18.02;9.18;;;;;;;8.46;58.67;99701.00;5039631;28;20404;-64
2023/02/05 00:38:26;;;;;;;19.55;9.48;;;;;;;8.32;59.87;99698.47;5020504;28;20504;-65
2023/02/05 00:40:52;;;;;;;20.85;10.70;;;;;;;8.20;60.54;99720.06;5021822;28;20551;-65
2023/02/05 00:43:17;;;;;;;18.65;9.77;;;;;;;7.88;60.83;99671.22;5007504;28;20057;-65
2023/02/05 00:45:43;;;;;;;18.10;9.48;;;;;;;8.18;59.98;99711.56;5023383;28;20108;-65
2023/02/05 00:48:08;;;;;;;19.77;9.38;;;;;;;8.21;60.04;99719.97;5009109;28;20099;-64
2023/02/05 00:50:34;;;;;;;19.70;10.18;;;;;;;8.14;60.79;99723.88;5007988;28;20088;-64
2023/02/05 00:53:00;;;;;;;21.70;9.65;;;;;;;8.14;60.38;99725.63;5022616;28;20113;-63
2023/02/05 00:55:25;;;;;;;19.83;8.93;;;;;;;8.13;59.69;99729.16;5007294;28;20572;-64
2023/02/05 00:57:51;;;;;;;16.67;8.77;;;;;;;8.20;59.15;99738.19;5023605;28;20430;-64
2023/02/05 01:00:17;;;;;;;20.98;9.52;;;;;;;8.06;59.38;99733.91;5055379;28;20017;-64
2023/02/05 01:02:42;;;;;;;21.08;9.73;;;;;;;8.08;59.06;99738.06;5058357;28;20038;-64
2023/02/05 01:05:08;;;;;;;16.48;9.07;;;;;;;8.16;58.99;99740.16;5041594;28;20424;-65
2023/02/05 01:07:34;;;;;;;20.90;9.32;;;;;;;8.12;58.68;99736.09;5003389;28;20033;-65
2023/02/05 01:09:59;;;;;;;15.52;7.32;;;;;;;8.13;58.63;99742.13;5021828;28;20039;-67
2023/02/05 01:12:24;;;;;;;17.77;9.00;;;;;;;8.10;58.72;99748.31;5014443;28;20548;-65
2023/02/05 01:14:51;;;;;;;20.67;10.80;;;;;;;8.12;58.82;99750.81;5054381;28;20026;-64
2023/02/05 01:17:16;;;;;;;18.95;9.95;;;;;;;7.76;58.90;99711.69;5022850;28;20037;-66
2023/02/05 01:19:41;;;;;;;17.75;7.97;;;;;;;7.99;59.49;99749.03;5024200;28;20793;-65
2023/02/05 01:22:07;;;;;;;16.08;8.32;;;;;;;8.02;59.35;99754.00;5045545;28;20022;-66
2023/02/05 01:24:33;;;;;;;18.00;9.05;;;;;;;7.78;60.18;99719.38;5014607;28;20048;-65
2023/02/05 01:26:58;;;;;;;15.77;8.48;;;;;;;8.03;60.34;99749.66;5047599;28;20079;-64
2023/02/05 01:29:24;;;;;;;16.50;8.85;;;;;;;8.03;59.99;99757.41;5022435;28;20037;-64
2023/02/05 01:31:50;;;;;;;18.02;9.35;;;;;;;8.05;60.07;99760.75;5023935;28;20033;-65
2023/02/05 01:34:16;;;;;;;19.73;9.45;;;;;;;7.64;59.87;99723.66;5003285;28;20030;-65
2023/02/05 01:36:42;;;;;;;16.65;9.13;;;;;;;7.45;60.06;99716.25;5019668;28;20090;-65
2023/02/05 01:39:07;;;;;;;18.13;9.18;;;;;;;7.70;60.52;99769.88;5046438;28;20045;-66
2023/02/05 01:41:34;;;;;;;16.77;9.00;;;;;;;7.57;60.96;99768.16;5022677;28;20044;-65
2023/02/05 01:44:12;;;;;;;17.38;9.15;;;;;;;7.70;60.78;99781.97;5002823;28;20055;-65
2023/02/05 01:46:42;;;;;;;18.17;9.95;;;;;;;7.58;60.67;99749.94;5020980;28;20030;-65
2023/02/05 01:49:13;;;;;;;19.17;9.60;;;;;;;7.55;61.52;99768.25;4997582;28;20030;-65
2023/02/05 01:51:38;;;;;;;18.77;10.27;;;;;;;7.53;62.39;99770.09;5028214;28;20049;-67
2023/02/05 01:54:05;;;;;;;22.35;9.98;;;;;;;7.48;62.08;99772.16;5019998;28;20052;-65
2023/02/05 01:56:44;;;;;;;21.00;9.90;;;;;;;7.20;62.56;99762.72;5002415;28;20556;-65
2023/02/05 01:59:23;;;;;;;22.80;9.93;;;;;;;7.04;63.40;99771.38;5052133;28;20037;-65
2023/02/05 02:01:49;;;;;;;18.65;9.73;;;;;;;6.95;64.39;99760.78;5051933;28;20432;-64
2023/02/05 02:04:23;;;;;;;18.95;9.45;;;;;;;6.76;63.78;99712.78;5054093;28;20028;-65
2023/02/05 02:06:48;;;;;;;18.20;9.02;;;;;;;7.04;64.39;99761.03;5016049;28;20090;-64
2023/02/05 02:09:14;;;;;;;18.90;8.15;;;;;;;7.01;64.55;99761.25;5007189;28;20029;-63
2023/02/05 02:11:41;;;;;;;19.27;8.57;;;;;;;6.98;63.77;99751.09;5023929;28;20104;-64
2023/02/05 02:14:08;;;;;;;16.00;8.93;;;;;;;6.94;64.16;99759.97;5007008;28;20026;-64
2023/02/05 02:16:35;;;;;;;17.63;8.43;;;;;;;6.83;64.80;99762.38;5049708;28;20021;-65
2023/02/05 02:19:03;;;;;;;18.38;8.55;;;;;;;6.82;64.28;99756.34;5033861;28;20026;-64
2023/02/05 02:21:34;;;;;;;23.35;9.10;;;;;;;6.85;63.28;99755.34;5024891;28;20053;-64
2023/02/05 02:24:33;;;;;;;19.50;9.38;;;;;;;7.00;63.61;99763.94;5030048;28;20036;-64
2023/02/05 02:27:20;;;;;;;21.00;9.23;;;;;;;6.93;63.84;99764.28;4998743;28;21545;-64
2023/02/05 02:29:58;;;;;;;17.40;8.73;;;;;;;6.92;63.74;99754.88;5015897;28;20488;-65
2023/02/05 02:32:47;;;;;;;18.83;9.07;;;;;;;6.93;63.53;99745.38;5005101;28;20061;-64
2023/02/05 02:35:18;;;;;;;16.08;8.25;;;;;;;6.83;64.15;99754.63;5018524;28;20039;-65
2023/02/05 02:38:07;;;;;;;18.23;8.45;;;;;;;6.75;63.61;99747.31;5047661;28;20389;-64
2023/02/05 02:40:38;;;;;;;17.38;8.40;;;;;;;6.82;63.60;99747.78;5021463;28;20124;-64
2023/02/05 02:43:06;;;;;;;17.67;8.55;;;;;;;6.85;63.85;99760.53;5019978;28;20042;-64
2023/02/05 02:45:34;;;;;;;19.23;8.90;;;;;;;6.82;63.91;99751.19;5033789;28;20022;-65
2023/02/05 02:48:00;;;;;;;18.48;8.95;;;;;;;6.43;63.82;99711.31;5019606;28;20025;-64
2023/02/05 02:50:31;;;;;;;19.58;8.93;;;;;;;6.57;64.42;99735.50;5037229;28;20040;-66
2023/02/05 02:53:01;;;;;;;17.13;8.18;;;;;;;6.56;63.83;99754.53;5024722;28;20033;-64
2023/02/05 02:55:29;;;;;;;16.00;8.13;;;;;;;6.41;64.58;99744.16;5021197;28;20075;-64
2023/02/05 02:57:55;;;;;;;16.40;8.02;;;;;;;6.44;65.42;99748.31;5049478;28;20053;-64
2023/02/05 03:00:24;;;;;;;17.38;8.25;;;;;;;6.30;65.66;99755.13;5012280;28;20038;-64
2023/02/05 03:02:53;;;;;;;18.35;8.57;;;;;;;6.21;65.50;99755.66;5009970;28;20068;-64
2023/02/05 03:05:20;;;;;;;19.75;8.95;;;;;;;5.92;66.47;99718.56;5004835;28;20544;-63
2023/02/05 03:08:03;;;;;;;19.05;9.23;;;;;;;6.09;66.30;99744.28;5026210;28;20040;-65
2023/02/05 03:10:39;;;;;;;14.82;7.38;;;;;;;6.01;66.30;99751.63;5007001;28;20037;-65
2023/02/05 03:13:06;;;;;;;17.23;8.18;;;;;;;6.05;66.29;99750.53;5055719;28;20029;-65
2023/02/05 03:15:31;;;;;;;15.77;7.22;;;;;;;5.99;66.77;99750.91;5001753;28;20036;-66
2023/02/05 03:17:57;;;;;;;15.95;7.50;;;;;;;6.03;66.32;99759.31;5037003;28;20051;-65
2023/02/05 03:20:28;;;;;;;14.90;7.85;;;;;;;5.97;65.26;99756.16;5025754;28;20476;-66
2023/02/05 03:22:54;;;;;;;17.00;7.75;;;;;;;5.95;65.35;99752.81;5045113;28;20040;-65
2023/02/05 03:25:21;;;;;;;17.23;7.72;;;;;;;5.86;65.50;99743.00;5056296;28;20526;-65
2023/02/05 03:27:47;;;;;;;15.65;7.43;;;;;;;5.87;66.77;99746.41;5029944;28;20045;-65
2023/02/05 03:30:13;;;;;;;16.17;7.05;;;;;;;5.84;65.57;99739.66;5058233;28;20112;-64
2023/02/05 03:32:45;;;;;;;13.52;6.88;;;;;;;4.71;65.97;99561.13;5025469;28;20803;-64
2023/02/05 03:35:27;;;;;;;14.73;6.43;;;;;;;5.63;65.59;99721.03;5025538;28;20121;-65
2023/02/05 03:38:15;;;;;;;14.13;6.82;;;;;;;5.79;65.17;99759.75;5033087;28;20055;-65
2023/02/05 03:41:02;;;;;;;15.73;6.68;;;;;;;5.52;65.66;99716.50;5031324;28;20081;-65
2023/02/05 03:43:57;;;;;;;13.15;6.72;;;;;;;5.72;65.19;99758.41;5036249;28;20348;-65
2023/02/05 03:46:22;;;;;;;13.55;6.60;;;;;;;5.68;65.62;99759.50;5048291;28;20025;-66
2023/02/05 03:49:06;;;;;;;13.15;6.45;;;;;;;5.61;65.58;99761.59;5020956;28;20030;-66
2023/02/05 03:51:36;;;;;;;15.30;6.63;;;;;;;5.57;65.94;99760.94;5024849;28;20033;-65
2023/02/05 03:54:20;;;;;;;12.88;6.05;;;;;;;5.57;65.17;99767.84;5052028;28;20025;-64
2023/02/05 03:56:54;;;;;;;13.57;6.43;;;;;;;5.66;65.28;99746.69;5041918;28;20044;-67
2023/02/05 03:59:19;;;;;;;11.70;6.13;;;;;;;5.31;64.64;99697.03;5014801;28;20090;-66
2023/02/05 04:01:45;;;;;;;15.15;6.20;;;;;;;5.63;64.07;99761.50;5026693;28;21222;-65
2023/02/05 04:04:12;;;;;;;11.38;5.47;;;;;;;5.60;64.11;99757.34;5038507;28;20029;-67
2023/02/05 04:06:38;;;;;;;12.00;4.95;;;;;;;5.65;63.13;99746.78;5041539;28;20091;-65
2023/02/05 04:09:03;;;;;;;10.05;4.38;;;;;;;5.74;62.25;99754.81;4997728;28;20040;-65
2023/02/05 04:11:28;;;;;;;10.82;4.60;;;;;;;5.74;61.99;99743.69;5034598;28;20580;-65
2023/02/05 04:13:54;;;;;;;9.20;3.95;;;;;;;5.29;62.25;99691.97;5024990;28;20444;-64
2023/02/05 04:16:19;;;;;;;12.48;3.88;;;;;;;5.75;60.98;99753.91;5057457;28;20288;-65
2023/02/05 04:18:45;;;;;;;9.13;3.88;;;;;;;5.24;61.55;99688.81;5010430;28;20033;-64
2023/02/05 04:21:10;;;;;;;11.38;4.50;;;;;;;5.31;61.90;99717.66;5027615;28;20506;-64
2023/02/05 04:23:36;;;;;;;10.82;3.85;;;;;;;5.66;61.53;99761.31;5029544;28;20459;-65
2023/02/05 04:26:01;;;;;;;11.23;4.38;;;;;;;5.64;61.57;99763.16;5006870;28;20030;-65
2023/02/05 04:28:27;;;;;;;10.88;4.10;;;;;;;5.56;62.45;99758.44;5022192;28;20690;-65
2023/02/05 04:30:52;;;;;;;8.82;3.53;;;;;;;5.52;62.36;99762.91;5031907;28;20064;-65
2023/02/05 04:33:17;;;;;;;9.15;3.38;;;;;;;5.50;62.46;99762.19;5029622;28;20025;-66
2023/02/05 04:35:43;;;;;;;11.82;3.90;;;;;;;5.42;62.51;99754.03;4999320;28;20045;-65
2023/02/05 04:38:08;;;;;;;8.10;3.53;;;;;;;5.42;62.46;99766.09;5034995;28;20576;-64
2023/02/05 04:40:34;;;;;;;9.85;3.58;;;;;;;5.16;62.13;99712.44;5024578;28;20040;-64
2023/02/05 04:42:59;;;;;;;10.75;3.63;;;;;;;5.44;61.44;99759.94;5020858;28;20032;-65
2023/02/05 04:45:29;;;;;;;10.02;4.03;;;;;;;5.33;62.58;99772.56;5006424;28;20034;-64
2023/02/05 04:47:55;;;;;;;9.50;4.03;;;;;;;5.37;63.04;99769.75;5001951;28;20033;-64
2023/02/05 04:50:21;;;;;;;11.27;4.72;;;;;;;5.26;63.60;99760.94;5006466;28;20033;-65
2023/02/05 04:52:46;;;;;;;11.18;5.05;;;;;;;5.20;64.01;99765.53;5021269;28;20362;-65
2023/02/05 04:55:12;;;;;;;10.68;5.00;;;;;;;5.15;63.97;99772.66;5019082;28;20030;-65
2023/02/05 04:57:37;;;;;;;12.77;5.05;;;;;;;4.84;65.01;99762.28;5051658;28;20041;-65
2023/02/05 05:00:03;;;;;;;11.93;5.63;;;;;;;4.71;64.78;99783.56;5023170;28;20494;-66
2023/02/05 05:02:28;;;;;;;11.32;5.10;;;;;;;4.60;64.91;99755.75;5023616;28;20637;-64
2023/02/05 05:04:54;;;;;;;11.88;4.75;;;;;;;4.72;65.01;99771.50;5051219;28;20029;-64
2023/02/05 05:07:19;;;;;;;13.43;5.18;;;;;;;4.56;65.18;99771.44;5020758;28;20083;-65
2023/02/05 05:09:45;;;;;;;14.70;5.47;;;;;;;4.62;65.48;99768.56;5019225;28;20033;-64
2023/02/05 05:12:10;;;;;;;11.20;4.53;;;;;;;4.46;65.65;99760.78;5038209;28;20338;-64
2023/02/05 05:14:36;;;;;;;11.60;4.45;;;;;;;4.35;66.38;99758.75;5038007;28;20052;-67
2023/02/05 05:17:01;;;;;;;12.13;4.93;;;;;;;4.32;66.33;99758.88;5008227;28;20030;-65
2023/02/05 05:19:27;;;;;;;13.50;5.03;;;;;;;4.34;67.02;99754.50;5007080;28;20531;-65
2023/02/05 05:21:52;;;;;;;11.77;4.68;;;;;;;4.36;66.32;99751.84;5003236;28;20030;-64
2023/02/05 05:24:18;;;;;;;10.77;4.85;;;;;;;4.30;66.89;99755.56;5019833;28;20033;-66
2023/02/05 05:26:43;;;;;;;13.07;4.88;;;;;;;4.26;66.86;99751.47;5019818;28;20177;-65
2023/02/05 05:29:13;;;;;;;9.68;4.78;;;;;;;4.27;67.16;99753.16;5003441;28;20030;-64
2023/02/05 05:31:39;;;;;;;10.00;4.65;;;;;;;4.24;67.38;99764.44;5017246;28;20090;-65
2023/02/05 05:34:04;;;;;;;11.27;4.95;;;;;;;4.30;67.15;99768.44;5023460;28;20060;-65
2023/02/05 05:36:30;;;;;;;12.38;4.57;;;;;;;3.96;67.75;99730.66;5039872;28;20025;-64
2023/02/05 05:43:45;;;;;;;12.32;4.55;;;;;;;4.18;67.65;99763.88;5005641;28;20506;-66
2023/02/05 05:44:24;;;;;;;9.65;4.25;;;;;;;3.84;67.75;99732.94;5009189;28;20107;-65
2023/02/05 05:46:50;;;;;;;11.27;4.72;;;;;;;3.89;68.48;99762.75;4989426;28;20483;-65
2023/02/05 05:49:15;;;;;;;9.40;4.18;;;;;;;3.91;68.58;99748.09;5023809;28;20094;-65
2023/02/05 05:51:41;;;;;;;11.30;4.63;;;;;;;3.84;68.96;99755.25;5005931;28;20055;-65
2023/02/05 05:54:06;;;;;;;10.32;4.38;;;;;;;3.87;68.79;99746.53;5014353;28;20051;-65
2023/02/05 05:56:32;;;;;;;11.35;4.65;;;;;;;3.79;68.49;99750.31;4999171;28;20036;-65
2023/02/05 05:58:58;;;;;;;11.48;4.15;;;;;;;3.80;68.50;99746.84;5009848;28;20072;-65
2023/02/05 06:01:23;;;;;;;8.75;4.20;;;;;;;3.53;68.70;99709.59;5005162;28;20408;-66
2023/02/05 06:03:49;;;;;;;13.40;4.80;;;;;;;3.87;68.49;99760.28;5013872;28;20111;-64
2023/02/05 06:06:14;;;;;;;11.18;4.25;;;;;;;3.64;68.62;99754.47;5001687;28;20045;-65
2023/02/05 06:08:40;;;;;;;11.82;4.60;;;;;;;3.43;68.59;99720.31;5036726;28;20040;-65
2023/02/05 06:11:05;;;;;;;9.30;3.75;;;;;;;3.58;68.38;99775.34;5008179;28;20030;-65
2023/02/05 06:13:31;;;;;;;12.25;4.05;;;;;;;3.63;69.19;99778.53;5009609;28;20032;-67
2023/02/05 06:15:56;;;;;;;9.73;3.55;;;;;;;3.62;68.56;99774.28;5010426;28;20036;-66
2023/02/05 06:18:22;;;;;;;10.52;3.70;;;;;;;3.62;68.28;99783.75;4999070;28;20044;-66
2023/02/05 06:20:47;;;;;;;9.40;3.65;;;;;;;3.35;68.21;99737.00;5018112;28;20029;-66
2023/02/05 06:23:12;;;;;;;9.20;3.90;;;;;;;3.31;68.76;99736.31;4994539;28;20465;-67
2023/02/05 06:25:38;;;;;;;11.57;3.35;;;;;;;3.62;69.10;99773.47;5025126;28;20025;-67
2023/02/05 06:28:04;;;;;;;10.68;3.83;;;;;;;3.68;68.38;99774.91;5018697;28;20034;-64
2023/02/05 06:30:29;;;;;;;12.10;3.75;;;;;;;3.62;67.64;99765.75;5021679;28;20032;-65
2023/02/05 06:32:55;;;;;;;9.77;3.58;;;;;;;3.70;68.70;99779.06;5007753;28;20039;-64
2023/02/05 06:35:20;;;;;;;7.80;3.30;;;;;;;3.74;68.06;99772.88;5037418;28;20772;-64
2023/02/05 06:37:46;;;;;;;8.95;4.05;;;;;;;3.74;68.06;99785.75;5019678;28;20139;-65
2023/02/05 06:40:11;;;;;;;10.05;3.88;;;;;;;3.65;68.13;99788.72;5044505;28;20075;-64
2023/02/05 06:42:37;;;;;;;11.65;3.67;;;;;;;3.58;68.85;99788.19;5016862;28;20038;-66
2023/02/05 06:45:03;;;;;;;9.90;4.30;;;;;;;3.59;68.08;99781.31;5026874;28;20467;-64
2023/02/05 06:47:28;;;;;;;12.80;3.90;;;;;;;3.24;68.31;99738.31;5006056;28;20178;-65
2023/02/05 06:49:53;;;;;;;12.82;3.97;;;;;;;3.37;69.26;99781.47;5050686;28;20041;-64
2023/02/05 06:52:19;;;;;;;10.25;3.72;;;;;;;3.46;69.57;99799.03;5005137;28;20037;-65
2023/02/05 06:54:44;;;;;;;10.10;4.10;;;;;;;3.41;68.93;99803.56;5022079;28;20021;-64
2023/02/05 06:57:10;;;;;;;8.85;3.75;;;;;;;3.39;69.04;99792.50;5008883;28;20028;-65
2023/02/05 06:59:35;;;;;;;8.70;3.65;;;;;;;3.40;69.18;99796.78;5021355;28;20497;-64
2023/02/05 07:02:01;;;;;;;9.63;3.55;;;;;;;3.33;69.75;99787.66;5021075;28;20052;-64
2023/02/05 07:04:26;;;;;;;7.72;4.03;;;;;;;3.01;70.06;99733.41;5006425;28;20164;-64
2023/02/05 07:06:56;;;;;;;13.02;4.43;;;;;;;3.26;69.99;99795.63;5004060;28;20030;-65
2023/02/05 07:09:22;;;;;;;9.40;3.95;;;;;;;3.12;70.22;99810.88;5047572;28;20396;-64
2023/02/05 07:11:47;;;;;;;12.27;3.78;;;;;;;3.18;70.59;99813.16;5020027;28;20041;-66
2023/02/05 07:14:13;;;;;;;10.00;3.58;;;;;;;2.86;71.35;99763.19;5015865;28;20469;-65
2023/02/05 07:16:38;;;;;;;10.38;4.00;;;;;;;3.26;70.49;99815.38;5014833;28;21255;-65
2023/02/05 07:19:04;;;;;;;9.98;3.75;;;;;;;3.06;70.48;99805.97;5005826;28;20740;-65
2023/02/05 07:21:29;;;;;;;8.13;3.47;;;;;;;3.07;70.74;99818.78;5019335;28;20034;-66
2023/02/05 07:23:55;;;;;;;11.02;5.00;;;;;;;3.17;70.95;99818.38;5022609;28;20079;-66
2023/02/05 07:26:20;;;;;;;9.80;3.50;;;;;;;3.08;70.76;99815.31;5022284;28;20079;-67
2023/02/05 07:28:46;;;;;;;9.88;3.70;;;;;;;3.17;71.38;99826.91;5014739;28;20094;-65
2023/02/05 07:31:19;;;;;;;9.77;3.78;;;;;;;3.02;70.51;99828.41;5015589;28;20044;-65
2023/02/05 07:33:46;;;;;;;9.15;3.72;;;;;;;3.12;71.45;99838.28;5011605;28;20040;-65
2023/02/05 07:36:15;;;;;;;9.50;3.28;;;;;;;3.14;71.25;99832.19;5005663;28;20037;-65
2023/02/05 07:38:41;;;;;;;10.73;3.43;;;;;;;3.14;70.77;99821.91;5017333;28;20532;-66
2023/02/05 07:41:07;;;;;;;10.52;3.55;;;;;;;3.19;71.01;99831.97;5004116;28;20393;-66
2023/02/05 07:43:34;;;;;;;7.47;3.00;;;;;;;3.16;71.27;99829.53;5049427;28;20120;-65
2023/02/05 07:46:02;;;;;;;11.70;3.45;;;;;;;3.05;71.74;99836.00;5009237;28;20037;-65
2023/02/05 07:48:27;;;;;;;8.50;3.33;;;;;;;2.94;72.25;99827.06;5022187;28;20036;-66
2023/02/05 07:50:53;;;;;;;10.38;3.80;;;;;;;3.00;71.96;99845.63;5022834;28;20034;-65
2023/02/05 07:53:19;;;;;;;7.93;3.58;;;;;;;3.04;71.86;99838.63;5025241;28;20052;-65
2023/02/05 07:55:44;;;;;;;10.25;4.10;;;;;;;3.05;71.60;99846.28;5024879;28;20041;-65
2023/02/05 07:58:10;;;;;;;10.02;3.67;;;;;;;2.99;72.03;99838.00;5014714;28;20075;-66
2023/02/05 08:00:35;;;;;;;10.63;3.83;;;;;;;2.99;72.90;99838.00;5021472;28;20036;-65
2023/02/05 08:03:01;;;;;;;8.63;3.47;;;;;;;2.78;72.79;99788.38;5052949;28;20049;-65
2023/02/05 08:05:27;;;;;;;8.40;3.80;;;;;;;2.94;73.18;99814.22;5029537;28;20033;-66
2023/02/05 08:07:52;;;;;;;8.55;4.10;;;;;;;3.19;72.95;99852.53;5008793;28;20025;-67
2023/02/05 08:10:17;;;;;;;10.48;3.60;;;;;;;3.19;71.97;99848.22;5010461;28;20111;-66
2023/02/05 08:12:43;;;;;;;8.65;3.65;;;;;;;2.45;71.96;99758.13;5035241;28;20022;-67
2023/02/05 08:15:08;;;;;;;9.18;3.92;;;;;;;3.08;72.42;99859.00;5056176;28;20041;-66
2023/02/05 08:17:34;;;;;;;10.48;4.22;;;;;;;3.14;72.56;99860.47;5006448;28;20085;-65
2023/02/05 08:20:05;;;;;;;12.70;4.57;;;;;;;3.05;72.45;99836.00;5010653;28;20123;-66
2023/02/05 08:22:35;;;;;;;10.35;4.78;;;;;;;3.14;72.35;99829.63;5039888;28;20032;-66
2023/02/05 08:25:01;;;;;;;13.57;4.95;;;;;;;3.32;71.49;99835.66;5055469;28;20033;-66
2023/02/05 08:27:26;;;;;;;10.40;5.03;;;;;;;3.12;71.64;99831.44;5039693;28;20095;-66
2023/02/05 08:29:52;;;;;;;13.90;5.22;;;;;;;3.13;72.45;99839.97;5001169;28;20030;-66
2023/02/05 08:32:17;;;;;;;9.70;4.65;;;;;;;3.24;72.99;99843.72;5048289;28;20531;-67
2023/02/05 08:34:42;;;;;;;8.73;4.38;;;;;;;3.29;73.18;99833.25;5021151;28;20469;-66
2023/02/05 08:37:08;;;;;;;11.00;4.47;;;;;;;3.39;73.39;99836.22;5024702;28;20370;-66
2023/02/05 08:39:34;;;;;;;10.75;4.32;;;;;;;3.37;74.03;99838.88;5021369;28;20037;-67
2023/02/05 08:41:59;;;;;;;9.02;4.03;;;;;;;3.08;73.71;99775.91;5007354;28;20033;-65
2023/02/05 08:44:24;;;;;;;11.50;5.13;;;;;;;3.10;73.75;99774.09;5018444;28;20725;-66
2023/02/05 08:46:50;;;;;;;10.65;4.32;;;;;;;3.46;74.61;99828.16;5010117;28;20460;-66
2023/02/05 08:49:16;;;;;;;10.45;3.88;;;;;;;3.49;74.23;99827.19;5018139;28;20041;-66
2023/02/05 08:51:42;;;;;;;9.60;3.58;;;;;;;3.49;74.01;99834.91;5020933;28;20386;-66
2023/02/05 08:54:11;;;;;;;8.05;3.38;;;;;;;3.39;74.08;99829.34;5044134;28;20052;-67
2023/02/05 08:56:37;;;;;;;;;;;;;;;3.39;74.01;99842.19;5046183;28;20115;-65
2023/02/05 08:59:02;;;;;;;15.07;5.55;;;;;;;3.39;72.67;99836.22;5041098;28;20476;-66
2023/02/05 09:01:28;;;;;;;14.10;4.32;;;;;;;3.39;75.94;99828.50;5013729;28;20551;-66
2023/02/05 09:03:53;;;;;;;12.43;4.18;;;;;;;3.38;77.71;99819.16;5017840;28;20030;-67
2023/02/05 09:06:19;;;;;;;11.45;4.07;;;;;;;3.24;77.23;99768.34;5019729;28;20037;-67
2023/02/05 09:08:44;;;;;;;8.82;3.78;;;;;;;3.65;77.73;99814.44;5031057;28;20095;-67
2023/02/05 09:11:12;;;;;;;10.27;4.25;;;;;;;3.67;77.85;99815.25;5015845;28;20048;-67
2023/02/05 09:13:37;;;;;;;9.95;4.50;;;;;;;3.62;78.63;99805.16;5027149;28;20913;-67
2023/02/05 09:16:03;;;;;;;10.82;4.43;;;;;;;3.77;78.93;99801.03;5049207;28;20044;-67
2023/02/05 09:18:28;;;;;;;9.65;5.05;;;;;;;3.58;78.03;99747.06;5013605;28;20057;-66
2023/02/05 09:20:54;;;;;;;10.60;4.55;;;;;;;3.90;77.95;99811.56;5015951;28;20056;-66
2023/02/05 09:23:19;;;;;;;8.75;4.25;;;;;;;3.84;77.69;99815.25;4998225;28;20043;-67
2023/02/05 09:25:45;;;;;;;9.73;3.90;;;;;;;3.82;78.43;99822.22;5017332;28;20030;-67
2023/02/05 09:28:12;;;;;;;9.43;3.83;;;;;;;3.56;78.08;99769.44;5045419;28;20240;-67
2023/02/05 09:30:39;;;;;;;10.48;4.65;;;;;;;3.87;77.52;99798.00;4996610;28;20030;-67
2023/02/05 09:33:05;;;;;;;13.65;4.97;;;;;;;3.91;77.96;99813.25;5004105;28;20030;-67
2023/02/05 09:35:32;;;;;;;10.60;4.60;;;;;;;4.07;77.03;99807.34;5018640;28;20131;-66
2023/02/05 09:37:58;;;;;;;10.98;4.35;;;;;;;4.10;76.02;99802.88;5019298;28;20037;-68
2023/02/05 09:40:27;;;;;;;12.30;5.15;;;;;;;4.19;77.08;99811.91;5019169;28;20045;-67
2023/02/05 09:43:02;;;;;;;10.90;4.00;;;;;;;4.31;76.79;99820.75;5021792;28;20067;-67
2023/02/05 09:45:35;;;;;;;11.05;4.55;;;;;;;4.23;77.54;99816.84;5001135;28;20083;-66
2023/02/05 09:48:09;;;;;;;10.68;3.33;;;;;;;4.01;76.04;99817.03;5018115;28;20618;-67
2023/02/05 09:50:36;;;;;;;8.13;3.30;;;;;;;4.02;77.60;99810.97;5034374;28;20128;-67
2023/02/05 09:53:04;;;;;;;11.15;3.28;;;;;;;3.82;78.89;99781.06;4993488;28;20452;-65
2023/02/05 09:55:33;;;;;;;8.35;3.05;;;;;;;4.10;80.60;99828.63;4995360;28;20465;-64
2023/02/05 09:58:14;;;;;;;8.27;2.92;;;;;;;4.09;82.04;99814.09;4998789;28;20026;-65
2023/02/05 10:00:44;;;;;;;11.85;2.90;;;;;;;4.16;82.31;99817.19;5053922;28;20033;-64
2023/02/05 10:03:12;;;;;;;14.98;3.75;;;;;;;4.35;80.89;99817.16;5007675;28;20122;-65
2023/02/05 10:06:01;;;;;;;6.63;3.10;;;;;;;4.56;79.82;99818.66;5005339;28;20034;-65
2023/02/05 10:08:51;;;;;;;9.57;3.33;;;;;;;4.81;76.09;99812.25;5016007;28;20053;-65
2023/02/05 10:11:42;;;;;;;11.05;2.35;;;;;;;5.13;70.27;99814.88;5017263;28;20029;-66
2023/02/05 10:14:18;;;;;;;6.88;1.90;;;;;;;5.39;66.66;99798.06;5009448;28;20135;-65
2023/02/05 10:16:52;;;;;;;8.70;2.00;;;;;;;5.62;65.82;99795.97;5041174;28;20211;-65
2023/02/05 10:19:33;;;;;;;7.32;1.45;;;;;;;5.89;64.65;99802.16;5046194;28;20033;-64
2023/02/05 10:22:13;;;;;;;10.73;1.92;;;;;;;6.08;62.89;99806.34;5019383;28;20444;-68
2023/02/05 10:25:11;;;;;;;6.43;1.45;;;;;;;6.10;62.02;99778.69;5027841;28;20025;-67
2023/02/05 10:27:41;;;;;;;9.38;1.85;;;;;;;6.29;61.63;99799.13;5023218;28;20017;-67
2023/02/05 10:30:28;;;;;;;8.05;2.00;;;;;;;6.43;61.37;99791.41;5020761;28;20029;-67
2023/02/05 10:33:17;;;;;;;7.50;1.98;;;;;;;6.42;60.22;99771.66;5029267;28;20095;-67
2023/02/05 10:36:01;;;;;;;6.18;1.98;;;;;;;6.67;59.57;99798.66;5019579;28;20079;-65
2023/02/05 10:38:31;;;;;;;8.07;1.73;;;;;;;6.74;60.37;99799.94;5020236;28;20053;-65
2023/02/05 10:41:04;;;;;;;10.25;1.98;;;;;;;6.74;59.93;99792.19;4999440;28;20057;-65
2023/02/05 10:43:46;;;;;;;6.53;2.10;;;;;;;6.76;59.10;99792.09;5051594;28;20074;-69
2023/02/05 10:46:13;;;;;;;7.90;2.10;;;;;;;6.79;59.39;99791.91;5003614;28;20609;-69
2023/02/05 10:48:44;;;;;;;6.93;1.83;;;;;;;6.61;58.83;99742.97;5036561;28;20447;-68
2023/02/05 10:51:40;;;;;;;5.65;1.88;;;;;;;7.01;58.33;99779.34;5016910;28;20068;-68
2023/02/05 10:54:29;;;;;;;8.35;1.90;;;;;;;7.03;58.05;99766.34;5003365;28;20103;-69
2023/02/05 10:56:57;;;;;;;9.68;1.90;;;;;;;7.10;57.49;99759.84;5016446;28;20046;-68
2023/02/05 10:59:32;;;;;;;8.63;1.75;;;;;;;7.04;57.32;99736.94;5046689;28;20038;-68
2023/02/05 11:02:08;;;;;;;9.80;1.92;;;;;;;7.20;57.26;99752.34;5039387;28;20026;-68
2023/02/05 11:04:46;;;;;;;8.25;1.95;;;;;;;7.10;57.19;99741.72;5017203;28;20550;-68
2023/02/05 11:07:22;;;;;;;7.47;2.28;;;;;;;7.17;57.28;99753.34;5014004;28;20620;-67
2023/02/05 11:09:48;;;;;;;6.10;2.08;;;;;;;7.07;57.03;99736.75;4998387;28;20079;-69
2023/02/05 11:12:29;;;;;;;6.68;1.90;;;;;;;7.15;56.92;99725.94;4999506;28;20029;-67
2023/02/05 11:15:00;;;;;;;7.93;2.70;;;;;;;7.13;56.51;99736.38;5010417;28;20180;-68
2023/02/05 11:17:37;;;;;;;6.22;2.08;;;;;;;7.12;56.56;99737.31;5014143;28;20022;-67
2023/02/05 11:20:07;;;;;;;9.52;2.47;;;;;;;6.94;56.29;99695.31;4997396;28;20025;-69
2023/02/05 11:22:35;;;;;;;9.25;2.08;;;;;;;7.12;56.63;99716.63;5020944;28;20033;-68
2023/02/05 11:25:25;;;;;;;7.55;2.20;;;;;;;7.29;56.33;99741.44;5024141;28;20037;-69
2023/02/05 11:28:03;;;;;;;8.50;2.38;;;;;;;7.22;56.08;99711.69;5028216;28;20034;-69
2023/02/05 11:30:35;;;;;;;6.78;2.25;;;;;;;7.38;56.09;99727.91;5059765;28;20036;-68
2023/02/05 11:33:37;;;;;;;7.18;2.15;;;;;;;7.42;54.99;99726.78;5025834;28;20108;-70
2023/02/05 11:36:05;;;;;;;7.78;2.13;;;;;;;7.44;55.30;99732.69;5008132;28;20121;-68
2023/02/05 11:38:46;;;;;;;8.45;2.05;;;;;;;7.50;54.06;99721.13;5004169;28;20683;-67
2023/02/05 11:41:25;;;;;;;7.97;2.45;;;;;;;7.39;55.15;99711.47;5027468;28;20546;-69
2023/02/05 11:43:52;;;;;;;5.80;2.00;;;;;;;7.43;55.35;99710.34;5051143;28;20033;-69
2023/02/05 11:46:20;;;;;;;7.00;2.20;;;;;;;7.53;55.34;99708.00;5050175;28;20029;-69
2023/02/05 11:48:52;;;;;;;9.65;2.30;;;;;;;7.24;54.61;99663.28;5021528;28;20120;-70